Highland Home, Alabama
Current Conditions -  °F | °C
As of 6:53 PM on Thursday 27 Nov 2014 (Local Time) from KTOI Reporting Station
Clear Clear  
Wind Chill: 36°   Ceiling: Unl
Heat Index: 40°   Visibility: 10mi
Dew Point: 31°   Wind: 6mph
Humidity: 70%   Direction: 320°NW
Pressure: 30.41"   Gusts: NA
Location:  31.95°N, 86.31°W
Report Text: KTOI 280053Z AUTO 32005KT 10SM CLR 04/M01 A3041 RMK AO2 SLP298 T00441006
Loading
Personal Weather Stations






























Interactive Weather Map New forecast layout! Learn more

10-Day Weather Forecast

Advertisements
Track Severe Weather on mobile